Stacja Pogody
Warszawa Praga-Północ

Szerokość 52°15'43"N Długość 21°01'22"E Wysokość 110m n.p.m.

Depesza TAF dla Warszawy

TAF EPWA 152030Z 1521/1621 30005KT CAVOK 
PROB30 1602/1605 4500 BR   
    
Stacja:                                                                                 
Dzień miesiąca: 15, godzina: 20:30 UTC                                                           
Wiatr: kierunek 292.5° (zachodni północno zachodni), prędkość 9.3 km/h (2 w skali Beauforta)
Widzialność:  ponad 10 km                                                                    
Zjawiska atmosferyczne: zamglenie                                                                       

Prawdopodobieństwo: 30 %